createdAt,value
2017-08-28T00:00:25.122Z,0.00
2017-08-28T00:01:19.048Z,0.00
2017-08-28T00:02:19.002Z,0.00
2017-08-28T00:03:14.166Z,0.00
2017-08-28T00:04:14.319Z,0.00
2017-08-28T00:05:08.173Z,0.00
2017-08-28T00:06:09.237Z,0.00
2017-08-28T00:07:10.287Z,0.00
2017-08-28T00:08:10.275Z,0.00
2017-08-28T00:09:10.254Z,0.00
2017-08-28T00:10:05.260Z,0.00
2017-08-28T00:10:59.475Z,0.00
2017-08-28T00:11:59.374Z,0.00
2017-08-28T00:12:54.458Z,0.00
2017-08-28T00:13:49.449Z,0.00
2017-08-28T00:14:50.662Z,0.00
2017-08-28T00:15:50.526Z,0.00
2017-08-28T00:16:50.717Z,0.00
2017-08-28T00:17:38.665Z,0.00
2017-08-28T00:18:32.606Z,0.00
2017-08-28T00:19:26.787Z,0.00
2017-08-28T00:20:20.827Z,0.00
2017-08-28T00:21:14.890Z,0.00
2017-08-28T00:22:08.832Z,0.00
2017-08-28T00:23:03.901Z,0.00
2017-08-28T00:23:52.952Z,0.00
2017-08-28T00:24:47.015Z,0.00
2017-08-28T00:25:40.952Z,0.00
2017-08-28T00:26:36.021Z,0.00
2017-08-28T00:27:24.085Z,0.00
2017-08-28T00:28:19.192Z,0.00
2017-08-28T00:29:13.169Z,0.00
2017-08-28T00:30:14.270Z,0.00
2017-08-28T00:31:14.257Z,0.00
2017-08-28T00:32:14.365Z,0.00
2017-08-28T00:33:08.231Z,0.00
2017-08-28T00:34:08.420Z,0.00
2017-08-28T00:35:03.443Z,0.00
2017-08-28T00:35:58.429Z,0.00
2017-08-28T00:36:59.465Z,0.00
2017-08-28T00:37:59.551Z,0.00
2017-08-28T00:38:54.607Z,0.00
2017-08-28T00:39:54.612Z,0.00
2017-08-28T00:40:48.600Z,0.00
2017-08-28T00:41:49.621Z,0.00
2017-08-28T00:42:49.712Z,0.00
2017-08-28T00:43:44.724Z,0.00
2017-08-28T00:44:44.708Z,0.00
2017-08-28T00:45:38.714Z,0.00
2017-08-28T00:46:38.885Z,0.00
2017-08-28T00:47:33.830Z,0.00
2017-08-28T00:48:28.933Z,0.00
2017-08-28T00:49:28.872Z,0.00
2017-08-28T00:50:23.933Z,0.00
2017-08-28T00:51:19.044Z,0.00
2017-08-28T00:52:24.960Z,0.00
2017-08-28T00:53:18.980Z,0.00
2017-08-28T00:54:19.022Z,0.00
2017-08-28T00:55:14.152Z,0.00
2017-08-28T00:56:14.152Z,0.00
2017-08-28T00:57:08.128Z,0.00
2017-08-28T00:58:08.173Z,0.00
2017-08-28T00:59:03.208Z,0.00
2017-08-28T00:59:58.355Z,0.00
2017-08-28T01:00:59.384Z,0.00
2017-08-28T01:02:00.338Z,0.00
2017-08-28T01:02:55.426Z,0.00
2017-08-28T01:03:49.502Z,0.00
2017-08-28T01:04:49.394Z,0.00
2017-08-28T01:05:44.513Z,0.00
2017-08-28T01:06:44.486Z,0.00
2017-08-28T01:07:44.528Z,0.00
2017-08-28T01:08:50.547Z,0.00
2017-08-28T01:09:45.482Z,0.00
2017-08-28T01:10:45.662Z,0.00
2017-08-28T01:11:40.607Z,0.00
2017-08-28T01:12:40.695Z,0.00
2017-08-28T01:13:40.844Z,0.00
2017-08-28T01:14:46.756Z,0.00
2017-08-28T01:15:46.698Z,0.00
2017-08-28T01:16:47.804Z,0.00
2017-08-28T01:17:47.830Z,0.00
2017-08-28T01:18:47.793Z,0.00
2017-08-28T01:19:41.874Z,0.00
2017-08-28T01:20:42.082Z,0.00
2017-08-28T01:21:36.988Z,0.00
2017-08-28T01:22:37.022Z,0.00
2017-08-28T01:23:31.077Z,0.00
2017-08-28T01:24:30.977Z,0.00
2017-08-28T01:25:26.155Z,0.00
2017-08-28T01:26:21.172Z,0.00
2017-08-28T01:27:21.099Z,0.00
2017-08-28T01:28:16.259Z,0.00
2017-08-28T01:29:11.334Z,0.00
2017-08-28T01:30:12.286Z,0.00
2017-08-28T01:31:12.247Z,0.00
2017-08-28T01:32:12.305Z,0.00
2017-08-28T01:33:07.265Z,0.00
2017-08-28T01:34:01.382Z,0.00
2017-08-28T01:35:01.369Z,0.00
2017-08-28T01:35:56.402Z,0.00
2017-08-28T01:36:56.516Z,0.00
2017-08-28T01:37:50.544Z,0.00
2017-08-28T01:38:50.472Z,0.00
2017-08-28T01:39:45.597Z,0.00
2017-08-28T01:40:40.735Z,0.00
2017-08-28T01:41:40.783Z,0.00
2017-08-28T01:42:35.805Z,0.00
2017-08-28T01:43:30.719Z,0.00
2017-08-28T01:44:31.924Z,0.00
2017-08-28T01:45:31.782Z,0.00
2017-08-28T01:46:31.976Z,0.00
2017-08-28T01:47:26.935Z,0.00
2017-08-28T01:48:20.982Z,0.00
2017-08-28T01:49:21.074Z,0.00
2017-08-28T01:50:15.835Z,0.00
2017-08-28T01:51:16.136Z,0.00
2017-08-28T01:52:10.152Z,0.00
2017-08-28T01:53:10.168Z,0.00
2017-08-28T01:54:05.169Z,0.00
2017-08-28T01:55:00.151Z,0.00
2017-08-28T01:56:00.238Z,0.00
2017-08-28T01:56:55.239Z,0.00
2017-08-28T01:57:50.363Z,0.00
2017-08-28T01:58:51.386Z,0.00
2017-08-28T01:59:51.354Z,0.00
2017-08-28T02:00:51.437Z,0.00
2017-08-28T02:01:46.473Z,0.00
2017-08-28T02:02:40.522Z,0.00
2017-08-28T02:03:40.674Z,0.00
2017-08-28T02:04:35.620Z,0.00
2017-08-28T02:05:35.660Z,0.00
2017-08-28T02:06:29.688Z,0.00
2017-08-28T02:07:29.650Z,0.00
2017-08-28T02:08:24.781Z,0.00
2017-08-28T02:09:19.696Z,0.00
2017-08-28T02:10:19.751Z,0.00
2017-08-28T02:11:14.849Z,0.00
2017-08-28T02:12:09.778Z,0.00
2017-08-28T02:13:10.771Z,0.00
2017-08-28T02:14:10.886Z,0.00
2017-08-28T02:15:10.974Z,0.00
2017-08-28T02:16:06.014Z,0.00
2017-08-28T02:17:00.015Z,0.00
2017-08-28T02:18:00.086Z,0.00
2017-08-28T02:18:55.072Z,0.00
2017-08-28T02:19:55.070Z,0.00
2017-08-28T02:20:49.213Z,0.00
2017-08-28T02:21:49.177Z,0.00
2017-08-28T02:22:44.269Z,0.00
2017-08-28T02:23:39.229Z,0.00
2017-08-28T02:24:39.269Z,0.00
2017-08-28T02:25:34.308Z,0.00
2017-08-28T02:26:29.502Z,0.00
2017-08-28T02:27:30.478Z,0.00
2017-08-28T02:28:30.408Z,0.00
2017-08-28T02:29:30.485Z,0.00
2017-08-28T02:30:25.575Z,0.00
2017-08-28T02:31:19.568Z,0.00
2017-08-28T02:32:19.584Z,0.00
2017-08-28T02:33:14.576Z,0.00
2017-08-28T02:34:14.694Z,0.00
2017-08-28T02:35:08.712Z,0.00
2017-08-28T02:36:08.672Z,0.00
2017-08-28T02:37:03.682Z,0.00
2017-08-28T02:37:58.767Z,0.00
2017-08-28T02:38:58.787Z,0.00
2017-08-28T02:39:53.829Z,0.00
2017-08-28T02:40:48.892Z,0.00
2017-08-28T02:41:49.956Z,0.00
2017-08-28T02:42:50.902Z,0.00
2017-08-28T02:43:51.005Z,0.00
2017-08-28T02:44:52.037Z,0.00
2017-08-28T02:45:46.018Z,0.00
2017-08-28T02:46:47.160Z,0.00
2017-08-28T02:47:47.048Z,0.00
2017-08-28T02:48:42.134Z,0.00
2017-08-28T02:49:42.480Z,0.00
2017-08-28T02:50:36.294Z,0.00
2017-08-28T02:51:36.279Z,0.00
2017-08-28T02:52:31.242Z,0.00
2017-08-28T02:53:31.331Z,0.00
2017-08-28T02:54:31.322Z,0.00
2017-08-28T02:55:31.423Z,0.00
2017-08-28T02:56:25.343Z,0.00
2017-08-28T02:57:25.354Z,0.00
2017-08-28T02:58:20.520Z,0.00
2017-08-28T02:59:15.573Z,0.00
2017-08-28T03:00:15.551Z,0.00
2017-08-28T03:01:10.743Z,0.00
2017-08-28T03:02:05.705Z,0.00
2017-08-28T03:03:11.678Z,0.00
2017-08-28T03:04:05.722Z,0.00
2017-08-28T03:05:05.814Z,0.00
2017-08-28T03:06:00.651Z,0.00
2017-08-28T03:07:00.813Z,0.00
2017-08-28T03:07:54.815Z,0.00
2017-08-28T03:08:54.871Z,0.00
2017-08-28T03:09:49.822Z,0.00
2017-08-28T03:10:44.938Z,0.00
2017-08-28T03:11:44.964Z,0.00
2017-08-28T03:12:39.961Z,0.00
2017-08-28T03:13:35.010Z,0.00
2017-08-28T03:14:35.099Z,0.00
2017-08-28T03:15:30.000Z,0.00
2017-08-28T03:16:25.103Z,0.00
2017-08-28T03:17:26.184Z,0.00
2017-08-28T03:18:26.305Z,0.00
2017-08-28T03:19:26.305Z,0.00
2017-08-28T03:20:21.266Z,0.00
2017-08-28T03:21:15.298Z,0.00
2017-08-28T03:22:15.275Z,0.00
2017-08-28T03:23:10.394Z,0.00
2017-08-28T03:24:10.369Z,0.00
2017-08-28T03:25:04.436Z,0.00
2017-08-28T03:26:04.466Z,0.00
2017-08-28T03:26:59.437Z,0.00
2017-08-28T03:27:54.546Z,0.00
2017-08-28T03:28:54.488Z,0.00
2017-08-28T03:29:49.580Z,0.00
2017-08-28T03:30:44.563Z,0.00
2017-08-28T03:31:45.482Z,0.00
2017-08-28T03:32:45.639Z,0.00
2017-08-28T03:33:45.604Z,0.00
2017-08-28T03:34:40.684Z,0.00
2017-08-28T03:35:34.646Z,0.00
2017-08-28T03:36:34.704Z,0.00
2017-08-28T03:37:29.787Z,0.00
2017-08-28T03:38:29.991Z,0.00
2017-08-28T03:39:23.871Z,0.00
2017-08-28T03:40:23.829Z,0.00
2017-08-28T03:41:19.061Z,0.00
2017-08-28T03:42:13.872Z,0.00
2017-08-28T03:43:13.969Z,0.00
2017-08-28T03:44:09.096Z,0.00
2017-08-28T03:45:04.041Z,0.00
2017-08-28T03:46:05.114Z,0.00
2017-08-28T03:47:05.216Z,0.00
2017-08-28T03:48:05.316Z,0.00
2017-08-28T03:49:00.236Z,0.00
2017-08-28T03:50:00.341Z,0.00
2017-08-28T03:50:59.705Z,0.00
2017-08-28T03:51:53.799Z,0.00
2017-08-28T03:52:54.470Z,0.00
2017-08-28T03:53:48.905Z,0.00
2017-08-28T03:54:48.798Z,0.00
2017-08-28T03:55:48.914Z,0.00
2017-08-28T03:56:49.292Z,0.00
2017-08-28T03:57:43.563Z,0.00
2017-08-28T03:58:42.984Z,0.00
2017-08-28T03:59:38.633Z,0.00
2017-08-28T04:00:38.609Z,0.00
2017-08-28T04:01:32.533Z,0.00
2017-08-28T04:02:32.411Z,0.00
2017-08-28T04:03:27.879Z,0.00
2017-08-28T04:04:22.193Z,0.00
2017-08-28T04:05:22.671Z,0.00
2017-08-28T04:06:17.611Z,0.00
2017-08-28T04:07:12.827Z,0.00
2017-08-28T04:08:13.948Z,0.00
2017-08-28T04:09:13.641Z,0.00
2017-08-28T04:10:13.910Z,0.00
2017-08-28T04:11:08.995Z,0.00
2017-08-28T04:12:09.103Z,0.00
2017-08-28T04:13:09.054Z,0.00
2017-08-28T04:14:03.298Z,0.00
2017-08-28T04:15:03.118Z,0.00
2017-08-28T04:15:58.316Z,0.00
2017-08-28T04:16:53.350Z,0.00
2017-08-28T04:17:53.338Z,0.00
2017-08-28T04:18:48.375Z,0.00
2017-08-28T04:19:43.309Z,0.00
2017-08-28T04:20:43.427Z,0.00
2017-08-28T04:21:38.483Z,0.00
2017-08-28T04:22:33.459Z,0.00
2017-08-28T04:23:33.451Z,0.00
2017-08-28T04:24:28.456Z,0.00
2017-08-28T04:25:23.507Z,0.00
2017-08-28T04:26:17.537Z,0.00
2017-08-28T04:27:17.630Z,0.00
2017-08-28T04:28:12.591Z,0.00
2017-08-28T04:29:12.576Z,0.00
2017-08-28T04:30:12.654Z,0.00
2017-08-28T04:31:12.835Z,0.00
2017-08-28T04:32:06.829Z,0.00
2017-08-28T04:33:06.725Z,0.00
2017-08-28T04:34:01.923Z,0.00
2017-08-28T04:34:56.904Z,0.00
2017-08-28T04:35:50.997Z,0.00
2017-08-28T04:36:51.012Z,0.01
2017-08-28T04:37:46.273Z,0.01
2017-08-28T04:38:41.006Z,0.01
2017-08-28T04:39:41.123Z,0.01
2017-08-28T04:40:36.129Z,0.01
2017-08-28T04:41:36.180Z,0.01
2017-08-28T04:42:37.204Z,0.01
2017-08-28T04:43:38.207Z,0.01
2017-08-28T04:44:32.277Z,0.01
2017-08-28T04:45:32.306Z,0.01
2017-08-28T04:46:27.233Z,0.01
2017-08-28T04:47:27.289Z,0.01
2017-08-28T04:48:28.359Z,0.02
2017-08-28T04:49:29.373Z,0.02
2017-08-28T04:50:30.528Z,0.02
2017-08-28T04:51:24.437Z,0.02
2017-08-28T04:52:24.554Z,0.02
2017-08-28T04:53:19.558Z,0.02
2017-08-28T04:54:19.545Z,0.02
2017-08-28T04:55:20.600Z,0.02
2017-08-28T04:56:21.739Z,0.02
2017-08-28T04:57:22.656Z,0.02
2017-08-28T04:58:16.732Z,0.03
2017-08-28T04:59:16.826Z,0.03
2017-08-28T05:00:11.819Z,0.03
2017-08-28T05:01:06.750Z,0.03
2017-08-28T05:02:06.845Z,0.03
2017-08-28T05:03:06.985Z,0.03
2017-08-28T05:03:55.857Z,0.03
2017-08-28T05:04:44.878Z,0.03
2017-08-28T05:05:33.971Z,0.04
2017-08-28T05:06:22.111Z,0.04
2017-08-28T05:07:16.106Z,0.04
2017-08-28T05:08:04.166Z,0.04
2017-08-28T05:08:53.269Z,0.04
2017-08-28T05:09:41.202Z,0.04
2017-08-28T05:10:30.271Z,0.04
2017-08-28T05:11:18.265Z,0.04
2017-08-28T05:12:12.384Z,0.04
2017-08-28T05:13:12.259Z,0.04
2017-08-28T05:14:12.416Z,0.04
2017-08-28T05:15:12.349Z,0.05
2017-08-28T05:16:12.567Z,0.05
2017-08-28T05:17:12.466Z,0.05
2017-08-28T05:18:12.520Z,0.05
2017-08-28T05:19:07.632Z,0.05
2017-08-28T05:20:02.684Z,0.05
2017-08-28T05:20:51.717Z,0.05
2017-08-28T05:21:39.725Z,0.05
2017-08-28T05:22:28.678Z,0.05
2017-08-28T05:23:16.751Z,0.05
2017-08-28T05:24:05.734Z,0.06
2017-08-28T05:24:54.806Z,0.06
2017-08-28T05:25:43.912Z,0.06
2017-08-28T05:26:32.952Z,0.06
2017-08-28T05:27:33.102Z,0.06
2017-08-28T05:28:33.011Z,0.06
2017-08-28T05:29:33.167Z,0.06
2017-08-28T05:30:27.093Z,0.06
2017-08-28T05:31:27.229Z,0.07
2017-08-28T05:32:16.328Z,0.07
2017-08-28T05:33:05.218Z,0.08
2017-08-28T05:33:53.292Z,0.09
2017-08-28T05:34:53.345Z,0.09
2017-08-28T05:35:48.260Z,0.09
2017-08-28T05:36:36.374Z,0.09
2017-08-28T05:37:24.540Z,0.10
2017-08-28T05:38:18.449Z,0.10
2017-08-28T05:39:12.496Z,0.10
2017-08-28T05:40:07.626Z,0.10
2017-08-28T05:41:02.541Z,0.10
2017-08-28T05:41:50.724Z,0.10
2017-08-28T05:42:45.708Z,0.10
2017-08-28T05:43:45.341Z,0.10
2017-08-28T05:44:34.604Z,0.10
2017-08-28T05:45:22.622Z,0.11
2017-08-28T05:46:11.689Z,0.11
2017-08-28T05:46:59.819Z,0.11
2017-08-28T05:47:48.985Z,0.11
2017-08-28T05:48:42.923Z,0.11
2017-08-28T05:49:31.911Z,0.12
2017-08-28T05:50:25.926Z,0.12
2017-08-28T05:51:13.710Z,0.12
2017-08-28T05:52:03.180Z,0.13
2017-08-28T05:52:57.193Z,0.13
2017-08-28T05:53:58.187Z,0.14
2017-08-28T05:54:53.333Z,0.14
2017-08-28T05:55:47.389Z,0.15
2017-08-28T05:56:35.307Z,0.16
2017-08-28T05:57:23.246Z,0.17
2017-08-28T05:58:23.164Z,0.18
2017-08-28T05:59:18.438Z,0.18
2017-08-28T06:00:18.626Z,0.20
2017-08-28T06:01:12.630Z,0.21
2017-08-28T06:02:12.643Z,0.23
2017-08-28T06:03:07.097Z,0.28
2017-08-28T06:03:54.697Z,0.33
2017-08-28T06:04:42.671Z,0.37
2017-08-28T06:05:43.789Z,0.34
2017-08-28T06:06:37.473Z,0.25
2017-08-28T06:07:31.821Z,0.22
2017-08-28T06:08:25.790Z,0.20
2017-08-28T06:09:13.990Z,0.20
2017-08-28T06:10:07.981Z,0.20
2017-08-28T06:11:02.994Z,0.20
2017-08-28T06:11:57.199Z,0.21
2017-08-28T06:12:58.101Z,0.22
2017-08-28T06:13:52.188Z,0.22
2017-08-28T06:14:47.179Z,0.23
2017-08-28T06:15:47.339Z,0.24
2017-08-28T06:16:42.331Z,0.24
2017-08-28T06:17:36.315Z,0.25
2017-08-28T06:18:25.371Z,0.22
2017-08-28T06:19:20.569Z,0.20
2017-08-28T06:20:20.546Z,0.19
2017-08-28T06:21:14.492Z,0.19
2017-08-28T06:22:09.623Z,0.18
2017-08-28T06:22:58.630Z,0.19
2017-08-28T06:23:58.712Z,0.29
2017-08-28T06:24:53.764Z,0.30
2017-08-28T06:25:47.784Z,0.27
2017-08-28T06:26:41.778Z,0.27
2017-08-28T06:27:36.904Z,0.27
2017-08-28T06:28:30.918Z,0.28
2017-08-28T06:29:25.090Z,0.29
2017-08-28T06:30:20.000Z,0.29
2017-08-28T06:31:09.124Z,0.29
2017-08-28T06:32:04.117Z,0.29
2017-08-28T06:32:59.170Z,0.29
2017-08-28T06:33:48.200Z,0.29
2017-08-28T06:34:36.401Z,0.29
2017-08-28T06:35:24.377Z,0.29
2017-08-28T06:36:19.306Z,0.30
2017-08-28T06:37:08.337Z,0.30
2017-08-28T06:38:02.462Z,0.30
2017-08-28T06:38:56.436Z,0.31
2017-08-28T06:39:44.499Z,0.31
2017-08-28T06:40:38.783Z,0.32
2017-08-28T06:41:32.687Z,0.32
2017-08-28T06:42:33.734Z,0.33
2017-08-28T06:43:34.803Z,0.33
2017-08-28T06:44:28.713Z,0.33
2017-08-28T06:45:17.819Z,0.33
2017-08-28T06:46:13.203Z,0.33
2017-08-28T06:47:07.918Z,0.33
2017-08-28T06:48:02.020Z,0.33
2017-08-28T06:48:56.044Z,0.33
2017-08-28T06:49:44.102Z,0.34
2017-08-28T06:50:38.216Z,0.34
2017-08-28T06:51:26.266Z,0.35
2017-08-28T06:52:27.289Z,0.36
2017-08-28T06:53:22.277Z,0.36
2017-08-28T06:54:10.396Z,0.36
2017-08-28T06:54:59.427Z,0.37
2017-08-28T06:55:48.363Z,0.36
2017-08-28T06:56:37.652Z,0.36
2017-08-28T06:57:32.557Z,0.36
2017-08-28T06:58:27.664Z,0.35
2017-08-28T06:59:28.689Z,0.34
2017-08-28T07:00:22.826Z,0.35
2017-08-28T07:01:17.718Z,0.36
2017-08-28T07:02:05.931Z,0.37
2017-08-28T07:02:59.804Z,0.38
2017-08-28T07:03:59.930Z,0.38
2017-08-28T07:04:48.025Z,0.37
2017-08-28T07:05:37.065Z,0.38
2017-08-28T07:06:26.184Z,0.38
2017-08-28T07:07:26.134Z,0.40
2017-08-28T07:08:21.140Z,0.41
2017-08-28T07:09:27.236Z,0.42
2017-08-28T07:10:21.322Z,0.42
2017-08-28T07:11:16.420Z,0.41
2017-08-28T07:12:05.365Z,0.41
2017-08-28T07:12:54.514Z,0.41
2017-08-28T07:13:48.434Z,0.41
2017-08-28T07:14:43.558Z,0.41
2017-08-28T07:15:37.558Z,0.41
2017-08-28T07:16:25.730Z,0.41
2017-08-28T07:17:25.663Z,0.42
2017-08-28T07:18:19.798Z,0.43
2017-08-28T07:19:14.662Z,0.43
2017-08-28T07:20:08.886Z,0.44
2017-08-28T07:20:56.921Z,0.44
2017-08-28T07:21:52.058Z,0.44
2017-08-28T07:22:41.060Z,0.44
2017-08-28T07:23:35.146Z,0.44
2017-08-28T07:24:36.148Z,0.43
2017-08-28T07:25:30.238Z,0.43
2017-08-28T07:26:19.262Z,0.44
2017-08-28T07:27:08.249Z,0.44
2017-08-28T07:28:03.485Z,0.45
2017-08-28T07:28:52.521Z,0.45
2017-08-28T07:29:53.481Z,0.45
2017-08-28T07:30:47.595Z,0.46
2017-08-28T07:31:36.584Z,0.46
2017-08-28T07:32:25.711Z,0.46
2017-08-28T07:33:19.718Z,0.47
2017-08-28T07:34:08.907Z,0.47
2017-08-28T07:35:03.951Z,0.47
2017-08-28T07:35:58.021Z,0.47
2017-08-28T07:36:57.927Z,0.48
2017-08-28T07:37:47.065Z,0.49
2017-08-28T07:38:42.063Z,0.49
2017-08-28T07:39:36.123Z,0.48
2017-08-28T07:40:25.173Z,0.48
2017-08-28T07:41:25.137Z,0.47
2017-08-28T07:42:19.255Z,0.47
2017-08-28T07:43:19.307Z,0.47
2017-08-28T07:44:13.299Z,0.48
2017-08-28T07:45:08.445Z,0.49
2017-08-28T07:46:08.409Z,0.50
2017-08-28T07:46:57.559Z,0.51
2017-08-28T07:47:46.726Z,0.51
2017-08-28T07:48:40.693Z,0.51
2017-08-28T07:49:40.704Z,0.52
2017-08-28T07:50:34.860Z,0.52
2017-08-28T07:51:29.935Z,0.52
2017-08-28T07:52:23.881Z,0.52
2017-08-28T07:53:19.065Z,0.52
2017-08-28T07:54:08.024Z,0.53
2017-08-28T07:54:57.103Z,0.53
2017-08-28T07:55:51.259Z,0.53
2017-08-28T07:56:39.125Z,0.53
2017-08-28T07:57:28.174Z,0.53
2017-08-28T07:58:29.313Z,0.52
2017-08-28T07:59:23.295Z,0.52
2017-08-28T08:00:12.508Z,0.52
2017-08-28T08:01:01.641Z,0.52
2017-08-28T08:01:55.517Z,0.53
2017-08-28T08:02:49.686Z,0.54
2017-08-28T08:03:43.619Z,0.54
2017-08-28T08:04:44.727Z,0.55
2017-08-28T08:05:32.778Z,0.56
2017-08-28T08:06:26.838Z,0.56
2017-08-28T08:07:15.867Z,0.56
2017-08-28T08:08:04.900Z,0.55
2017-08-28T08:08:59.045Z,0.55
2017-08-28T08:09:47.053Z,0.55
2017-08-28T08:10:41.140Z,0.56
2017-08-28T08:11:29.183Z,0.56
2017-08-28T08:12:18.221Z,0.56
2017-08-28T08:13:18.338Z,0.56
2017-08-28T08:14:07.364Z,0.56
2017-08-28T08:14:56.461Z,0.57
2017-08-28T08:15:50.505Z,0.57
2017-08-28T08:16:38.579Z,0.58
2017-08-28T08:17:32.596Z,0.58
2017-08-28T08:18:32.692Z,0.58
2017-08-28T08:19:20.623Z,0.58
2017-08-28T08:20:09.702Z,0.58
2017-08-28T08:20:58.772Z,0.59
2017-08-28T08:21:58.883Z,0.60
2017-08-28T08:22:52.869Z,0.61
2017-08-28T08:23:47.094Z,0.61
2017-08-28T08:24:35.101Z,0.61
2017-08-28T08:25:30.163Z,0.62
2017-08-28T08:26:19.249Z,0.62
2017-08-28T08:27:14.389Z,0.62
2017-08-28T08:28:15.358Z,0.62
2017-08-28T08:29:15.380Z,0.61
2017-08-28T08:30:03.393Z,0.61
2017-08-28T08:31:03.532Z,0.60
2017-08-28T08:31:58.522Z,0.59
2017-08-28T08:32:52.798Z,0.61
2017-08-28T08:33:46.687Z,0.61
2017-08-28T08:34:46.704Z,0.61
2017-08-28T08:35:40.821Z,0.62
2017-08-28T08:36:29.931Z,0.60
2017-08-28T08:37:30.842Z,0.62
2017-08-28T08:38:25.949Z,0.62
2017-08-28T08:39:21.069Z,0.60
2017-08-28T08:40:15.099Z,0.61
2017-08-28T08:41:04.176Z,0.62
2017-08-28T08:42:05.227Z,0.62
2017-08-28T08:43:05.197Z,0.59
2017-08-28T08:43:54.330Z,0.59
2017-08-28T08:44:43.358Z,0.58
2017-08-28T08:45:32.521Z,0.57
2017-08-28T08:46:26.514Z,0.59
2017-08-28T08:47:21.562Z,0.59
2017-08-28T08:48:16.589Z,0.57
2017-08-28T08:49:10.719Z,0.62
2017-08-28T08:50:05.769Z,0.65
2017-08-28T08:51:00.760Z,0.63
2017-08-28T08:51:54.820Z,0.62
2017-08-28T08:52:49.028Z,0.65
2017-08-28T08:53:48.946Z,0.66
2017-08-28T08:54:38.066Z,0.66
2017-08-28T08:55:26.110Z,0.63
2017-08-28T08:56:14.198Z,0.67
2017-08-28T08:57:02.298Z,0.67
2017-08-28T08:57:50.416Z,0.67
2017-08-28T08:58:44.405Z,0.68
2017-08-28T08:59:38.532Z,0.68
2017-08-28T09:00:32.395Z,0.68
2017-08-28T09:01:26.574Z,0.68
2017-08-28T09:02:26.489Z,0.68
2017-08-28T09:03:15.613Z,0.67
2017-08-28T09:04:09.710Z,0.67
2017-08-28T09:04:58.769Z,0.68
2017-08-28T09:05:58.693Z,0.67
2017-08-28T09:06:52.772Z,0.67
2017-08-28T09:07:47.986Z,0.67
2017-08-28T09:08:36.951Z,0.66
2017-08-28T09:09:31.030Z,0.66
2017-08-28T09:10:19.047Z,0.65
2017-08-28T09:11:13.207Z,0.67
2017-08-28T09:12:07.350Z,0.68
2017-08-28T09:12:56.354Z,0.67
2017-08-28T09:13:51.540Z,0.67
2017-08-28T09:14:45.462Z,0.67
2017-08-28T09:15:39.648Z,0.68
2017-08-28T09:16:28.595Z,0.68
2017-08-28T09:17:23.673Z,0.69
2017-08-28T09:18:18.766Z,0.70
2017-08-28T09:19:18.812Z,0.69
2017-08-28T09:20:18.857Z,0.70
2017-08-28T09:21:12.915Z,0.70
2017-08-28T09:22:12.933Z,0.70
2017-08-28T09:23:08.113Z,0.70
2017-08-28T09:24:02.127Z,0.71
2017-08-28T09:24:51.228Z,0.70
2017-08-28T09:25:46.188Z,0.72
2017-08-28T09:26:35.289Z,0.73
2017-08-28T09:27:24.401Z,0.72
2017-08-28T09:28:18.434Z,0.71
2017-08-28T09:29:12.581Z,0.71
2017-08-28T09:30:07.546Z,0.70
2017-08-28T09:30:56.611Z,0.71
2017-08-28T09:31:56.614Z,0.69
2017-08-28T09:32:44.717Z,0.70
2017-08-28T09:33:32.826Z,0.68
2017-08-28T09:34:27.919Z,0.69
2017-08-28T09:35:16.824Z,0.69
2017-08-28T09:36:05.923Z,0.68
2017-08-28T09:37:01.095Z,0.69
2017-08-28T09:37:49.220Z,0.70
2017-08-28T09:38:49.115Z,0.71
2017-08-28T09:39:37.216Z,0.72
2017-08-28T09:40:26.329Z,0.73
2017-08-28T09:41:21.371Z,0.72
2017-08-28T09:42:16.466Z,0.72
2017-08-28T09:43:11.530Z,0.72
2017-08-28T09:44:05.531Z,0.72
2017-08-28T09:45:00.581Z,0.70
2017-08-28T09:45:55.696Z,0.68
2017-08-28T09:46:49.732Z,0.67
2017-08-28T09:47:49.938Z,0.64
2017-08-28T09:48:49.789Z,0.68
2017-08-28T09:49:44.071Z,0.70
2017-08-28T09:50:38.977Z,0.70
2017-08-28T09:51:28.031Z,0.72
2017-08-28T09:52:21.976Z,0.72
2017-08-28T09:53:22.165Z,0.73
2017-08-28T09:54:17.231Z,0.74
2017-08-28T09:55:11.377Z,0.74
2017-08-28T09:56:05.420Z,0.74
2017-08-28T09:57:00.415Z,0.75
2017-08-28T09:57:54.608Z,0.75
2017-08-28T09:58:48.556Z,0.75
2017-08-28T09:59:36.620Z,0.75
2017-08-28T10:00:30.812Z,0.75
2017-08-28T10:01:24.938Z,0.75
2017-08-28T10:02:13.872Z,0.75
2017-08-28T10:03:02.826Z,0.75
2017-08-28T10:03:58.046Z,0.75
2017-08-28T10:04:53.088Z,0.75
2017-08-28T10:05:42.121Z,0.75
2017-08-28T10:06:30.186Z,0.75
2017-08-28T10:07:24.241Z,0.76
2017-08-28T10:08:18.361Z,0.75
2017-08-28T10:09:07.301Z,0.76
2017-08-28T10:09:55.551Z,0.76
2017-08-28T10:10:49.775Z,0.75
2017-08-28T10:11:44.640Z,0.75
2017-08-28T10:12:33.679Z,0.74
2017-08-28T10:13:27.712Z,0.74
2017-08-28T10:14:16.768Z,0.74
2017-08-28T10:15:10.840Z,0.75
2017-08-28T10:16:00.160Z,0.74
2017-08-28T10:16:55.073Z,0.75
2017-08-28T10:17:55.260Z,0.74
2017-08-28T10:18:50.057Z,0.75
2017-08-28T10:19:44.286Z,0.75
2017-08-28T10:20:38.442Z,0.76
2017-08-28T10:21:27.369Z,0.76
2017-08-28T10:22:22.462Z,0.77
2017-08-28T10:23:16.424Z,0.77
2017-08-28T10:24:10.592Z,0.78
2017-08-28T10:24:59.702Z,0.78
2017-08-28T10:25:48.755Z,0.78
2017-08-28T10:26:43.796Z,0.78
2017-08-28T10:27:32.912Z,0.78
2017-08-28T10:28:33.019Z,0.78
2017-08-28T10:29:33.103Z,0.78
2017-08-28T10:30:33.224Z,0.77
2017-08-28T10:31:22.186Z,0.77
2017-08-28T10:32:16.334Z,0.78
2017-08-28T10:33:10.460Z,0.79
2017-08-28T10:34:05.499Z,0.79
2017-08-28T10:35:00.511Z,0.79
2017-08-28T10:35:55.652Z,0.79
2017-08-28T10:36:50.780Z,0.79
2017-08-28T10:37:51.209Z,0.78
2017-08-28T10:38:51.852Z,0.78
2017-08-28T10:39:40.958Z,0.77
2017-08-28T10:40:34.927Z,0.77
2017-08-28T10:41:30.076Z,0.76
2017-08-28T10:42:19.212Z,0.77
2017-08-28T10:43:14.303Z,0.70
2017-08-28T10:44:03.320Z,0.76
2017-08-28T10:45:03.392Z,0.75
2017-08-28T10:45:52.415Z,0.74
2017-08-28T10:46:52.471Z,0.74
2017-08-28T10:47:52.637Z,0.74
2017-08-28T10:48:41.622Z,0.75
2017-08-28T10:49:36.778Z,0.74
2017-08-28T10:50:30.735Z,0.75
2017-08-28T10:51:30.859Z,0.75
2017-08-28T10:52:25.973Z,0.76
2017-08-28T10:53:15.022Z,0.76
2017-08-28T10:54:09.214Z,0.76
2017-08-28T10:55:04.272Z,0.77
2017-08-28T10:56:04.389Z,0.74
2017-08-28T10:57:05.426Z,0.73
2017-08-28T10:58:00.391Z,0.72
2017-08-28T10:58:55.563Z,0.72
2017-08-28T10:59:55.700Z,0.73
2017-08-28T11:00:43.665Z,0.69
2017-08-28T11:01:32.806Z,0.76
2017-08-28T11:02:26.862Z,0.75
2017-08-28T11:03:26.911Z,0.76
2017-08-28T11:04:21.055Z,0.75
2017-08-28T11:05:10.182Z,0.76
2017-08-28T11:06:10.176Z,0.75
2017-08-28T11:07:05.287Z,0.76
2017-08-28T11:08:00.416Z,0.76
2017-08-28T11:09:00.495Z,0.75
2017-08-28T11:10:00.521Z,0.73
2017-08-28T11:10:48.641Z,0.74
2017-08-28T11:11:54.594Z,0.75
2017-08-28T11:12:43.694Z,0.74
2017-08-28T11:13:37.872Z,0.72
2017-08-28T11:14:39.006Z,0.72
2017-08-28T11:15:34.063Z,0.75
2017-08-28T11:16:29.181Z,0.76
2017-08-28T11:17:23.330Z,0.76
2017-08-28T11:18:18.294Z,0.75
2017-08-28T11:19:12.423Z,0.73
2017-08-28T11:20:07.520Z,0.72
2017-08-28T11:21:02.658Z,0.70
2017-08-28T11:21:51.554Z,0.69
2017-08-28T11:22:52.809Z,0.65
2017-08-28T11:23:46.839Z,0.65
2017-08-28T11:24:46.831Z,0.72
2017-08-28T11:25:41.916Z,0.74
2017-08-28T11:26:35.997Z,0.74
2017-08-28T11:27:25.142Z,0.75
2017-08-28T11:28:14.084Z,0.76
2017-08-28T11:29:14.191Z,0.77
2017-08-28T11:30:08.296Z,0.78
2017-08-28T11:31:02.369Z,0.78
2017-08-28T11:31:56.485Z,0.78
2017-08-28T11:32:50.689Z,0.77
2017-08-28T11:33:51.584Z,0.77
2017-08-28T11:34:46.794Z,0.18
2017-08-28T11:35:35.798Z,0.77
2017-08-28T11:36:29.866Z,0.76
2017-08-28T11:37:24.035Z,0.77
2017-08-28T11:38:13.074Z,0.77
2017-08-28T11:39:14.071Z,0.78
2017-08-28T11:40:14.207Z,0.78
2017-08-28T11:41:08.381Z,0.77
2017-08-28T11:42:08.378Z,0.77
2017-08-28T11:43:03.508Z,0.77
2017-08-28T11:44:03.618Z,0.77
2017-08-28T11:44:58.565Z,0.19
2017-08-28T11:45:58.711Z,0.74
2017-08-28T11:46:53.672Z,0.74
2017-08-28T11:47:47.799Z,0.72
2017-08-28T11:48:47.979Z,0.70
2017-08-28T11:49:48.228Z,0.72
2017-08-28T11:50:42.085Z,0.69
2017-08-28T11:51:31.231Z,0.69
2017-08-28T11:52:31.193Z,0.72
2017-08-28T11:53:26.408Z,0.71
2017-08-28T11:54:27.355Z,0.19
2017-08-28T11:55:21.572Z,0.61
2017-08-28T11:56:10.560Z,0.26
2017-08-28T11:56:59.614Z,0.73
2017-08-28T11:57:53.796Z,0.20
2017-08-28T11:58:47.796Z,0.73
2017-08-28T11:59:35.907Z,0.74
2017-08-28T12:00:31.273Z,0.73
2017-08-28T12:01:18.996Z,0.71
2017-08-28T12:02:07.188Z,0.20
2017-08-28T12:02:56.273Z,0.71
2017-08-28T12:03:50.277Z,0.71
2017-08-28T12:04:45.412Z,0.72
2017-08-28T12:05:45.544Z,0.73
2017-08-28T12:06:39.577Z,0.71
2017-08-28T12:07:28.616Z,0.70
2017-08-28T12:08:17.868Z,0.69
2017-08-28T12:09:06.900Z,0.67
2017-08-28T12:09:55.923Z,0.68
2017-08-28T12:10:56.075Z,0.66
2017-08-28T12:11:56.036Z,0.58
2017-08-28T12:12:50.179Z,0.59
2017-08-28T12:13:44.233Z,0.62
2017-08-28T12:14:38.331Z,0.63